Time;durP1;ratioP1;P1;durP2;ratioP2;P2;SDS_P1;SDS_P2;PMS_P1;PMS_P2;Temp;Humidity;BMP_temperature;BMP_pressure;BME280_temperature;BME280_humidity;BME280_pressure;Samples;Min_cycle;Max_cycle;Signal;HPM_P1;HPM_P2
2022/09/29 00:01:37;;;;;;;3.00;2.45;;;19.60;98.00;;;19.38;66.44;97243.06;5098207;28;20653;-76
2022/09/29 00:04:02;;;;;;;4.63;2.40;;;19.60;97.90;;;19.39;66.33;97247.41;5097567;28;20088;-76
2022/09/29 00:06:28;;;;;;;3.33;2.50;;;19.60;97.90;;;19.39;67.09;97244.66;5075742;28;20084;-76
2022/09/29 00:08:55;;;;;;;2.65;2.08;;;19.60;98.20;;;19.40;67.48;97249.00;5101791;28;20595;-76
2022/09/29 00:11:21;;;;;;;3.00;2.20;;;19.60;98.20;;;19.36;67.23;97245.38;5085011;28;20124;-76
2022/09/29 00:13:50;;;;;;;3.75;2.15;;;19.60;98.20;;;19.37;66.77;97245.03;5108074;28;20048;-75
2022/09/29 00:16:16;;;;;;;2.58;2.33;;;19.60;98.10;;;19.34;66.75;97256.78;5092360;28;20055;-75
2022/09/29 00:18:42;;;;;;;2.45;2.20;;;19.60;98.00;;;19.34;66.50;97254.03;5089067;28;20053;-75
2022/09/29 00:21:15;;;;;;;9.02;2.60;;;19.60;98.00;;;19.37;67.04;97263.50;5082314;28;20039;-75
2022/09/29 00:23:42;;;;;;;3.13;2.50;;;19.60;98.10;;;19.38;67.52;97263.09;5100969;28;20433;-75
2022/09/29 00:26:26;;;;;;;3.75;2.75;;;19.60;98.20;;;19.39;67.67;97278.44;5071795;28;20044;-75
2022/09/29 00:28:55;;;;;;;5.65;2.80;;;19.60;98.30;;;19.36;66.87;97276.44;5090607;28;20043;-75
2022/09/29 00:31:25;;;;;;;2.75;2.47;;;19.50;98.10;;;19.34;66.90;97272.47;5101398;28;20040;-75
2022/09/29 00:33:52;;;;;;;5.30;2.38;;;19.60;98.10;;;19.36;66.61;97278.38;5089583;28;20043;-75
2022/09/29 00:36:19;;;;;;;3.17;2.13;;;19.60;98.00;;;19.34;66.83;97281.50;5082685;28;20040;-75
2022/09/29 00:38:46;;;;;;;2.35;2.10;;;19.50;98.00;;;19.39;67.28;97283.16;5068119;28;20122;-75
2022/09/29 00:41:17;;;;;;;2.08;1.77;;;19.50;98.20;;;19.37;67.51;97280.78;5087674;28;20060;-75
2022/09/29 00:43:51;;;;;;;;;;;19.60;98.30;;;19.35;67.46;97285.84;5084915;28;20123;-75
2022/09/29 00:46:54;;;;;;;2.45;2.22;;;19.50;98.20;;;19.35;66.97;97288.59;5102685;28;19920;-75
2022/09/29 00:49:43;;;;;;;3.63;2.50;;;19.60;98.10;;;19.35;66.87;97293.28;5000025;28;20056;-76
2022/09/29 00:52:15;;;;;;;3.03;2.33;;;19.60;98.10;;;19.34;66.65;97283.47;5101460;27;20065;-75
2022/09/29 00:55:07;;;;;;;2.40;2.20;;;19.60;98.00;;;19.36;67.79;97286.63;5098967;28;20674;-75
2022/09/29 00:58:10;;;;;;;2.35;2.15;;;19.50;98.20;;;19.35;67.79;97285.06;5106561;28;20459;-75
2022/09/29 01:00:36;;;;;;;4.45;2.20;;;19.50;98.30;;;19.32;67.27;97283.03;5070156;28;20483;-76
2022/09/29 01:03:21;;;;;;;4.57;3.05;;;19.50;98.20;;;19.34;67.15;97278.75;5089837;28;20120;-75
2022/09/29 01:06:09;;;;;;;3.00;2.30;;;19.50;98.10;;;19.32;66.85;97291.28;5053360;28;20083;-75
2022/09/29 01:09:01;;;;;;;3.20;2.45;;;19.50;98.10;;;19.33;67.10;97295.63;5092804;28;20043;-75
2022/09/29 01:11:28;;;;;;;3.30;2.17;;;19.60;98.10;;;19.35;67.73;97294.09;5098316;28;20088;-75
2022/09/29 01:13:56;;;;;;;2.42;2.17;;;19.60;98.30;;;19.33;68.10;97296.41;5065717;28;20127;-75
2022/09/29 01:16:22;;;;;;;2.63;2.10;;;19.50;98.30;;;19.35;67.20;97304.28;5082344;28;20047;-75
2022/09/29 01:18:51;;;;;;;7.75;2.35;;;19.60;98.20;;;19.33;67.34;97309.38;5082009;28;20054;-76
2022/09/29 01:21:57;;;;;;;3.17;2.30;;;19.50;98.20;;;19.33;67.07;97318.41;5058657;28;20044;-76
2022/09/29 01:24:35;;;;;;;2.35;2.15;;;19.50;98.10;;;19.33;66.99;97321.16;5099380;28;20036;-75
2022/09/29 01:27:16;;;;;;;3.17;2.10;;;19.50;98.10;;;19.36;67.86;97325.13;5100397;28;20040;-75
2022/09/29 01:30:07;;;;;;;5.90;1.83;;;19.50;98.30;;;19.34;68.11;97321.97;5099795;28;20822;-76
2022/09/29 01:33:11;;;;;;;2.58;2.38;;;19.50;98.40;;;19.35;67.15;97323.53;5103240;28;20055;-75
2022/09/29 01:36:22;;;;;;;4.40;2.22;;;19.50;98.40;;;19.33;67.16;97323.09;5092129;28;20067;-76
2022/09/29 01:38:58;;;;;;;4.00;2.22;;;19.50;98.10;;;19.28;67.32;97314.03;5073816;28;20055;-76
2022/09/29 01:41:52;;;;;;;2.17;1.80;;;19.50;98.10;;;19.30;67.38;97317.19;5083768;28;20043;-76
2022/09/29 01:44:51;;;;;;;2.85;2.17;;;19.50;98.10;;;19.33;68.06;97328.59;5105555;28;20066;-76
2022/09/29 01:47:33;;;;;;;4.13;2.55;;;19.50;98.30;;;19.28;68.15;97324.22;5093013;28;20166;-76
2022/09/29 01:50:28;;;;;;;3.50;2.28;;;19.50;98.30;;;19.29;67.30;97323.06;5087634;28;20040;-76
2022/09/29 01:53:04;;;;;;;3.22;2.58;;;19.50;98.20;;;19.31;67.20;97326.25;5087093;28;20050;-76
2022/09/29 01:55:31;;;;;;;2.47;2.28;;;19.50;98.20;;;19.29;67.01;97312.84;5054686;28;20092;-76
2022/09/29 01:58:01;;;;;;;3.53;2.55;;;19.50;98.10;;;19.29;67.77;97323.84;5098816;28;20044;-76
2022/09/29 02:00:30;;;;;;;3.88;2.47;;;19.50;98.20;;;19.27;68.27;97317.91;5072061;28;20052;-75
2022/09/29 02:03:08;;;;;;;3.55;1.90;;;19.50;98.40;;;19.29;68.44;97323.06;5051863;28;20044;-76
2022/09/29 02:05:47;;;;;;;2.85;2.00;;;19.50;98.50;;;19.28;67.66;97325.03;5070489;28;20050;-75
2022/09/29 02:08:40;;;;;;;5.25;2.65;;;19.50;98.20;;;19.28;67.31;97327.78;5103281;28;20040;-76
2022/09/29 02:11:11;;;;;;;2.85;2.13;;;19.50;98.20;;;19.28;67.23;97330.53;5056020;28;20591;-76
2022/09/29 02:13:42;;;;;;;3.45;2.28;;;19.50;98.20;;;19.29;67.51;97326.59;5098100;28;20088;-75
2022/09/29 02:16:13;;;;;;;2.92;2.38;;;19.50;98.20;;;19.30;68.01;97330.94;5082745;28;20442;-76
2022/09/29 02:18:46;;;;;;;1.77;1.63;;;19.50;98.40;;;19.30;68.22;97330.94;5087820;28;20075;-76
2022/09/29 02:21:12;;;;;;;1.98;1.80;;;19.50;98.40;;;19.27;67.64;97334.41;5084008;28;20035;-76
2022/09/29 02:23:38;;;;;;;2.10;1.90;;;19.50;98.20;;;19.28;67.39;97333.28;5072883;28;20078;-76
2022/09/29 02:26:04;;;;;;;4.22;2.30;;;19.50;98.20;;;19.30;66.87;97341.91;5103742;28;20043;-76
2022/09/29 02:28:30;;;;;;;3.72;2.50;;;19.50;98.20;;;19.27;67.28;97337.16;5073603;28;20047;-75
2022/09/29 02:30:56;;;;;;;2.28;2.03;;;19.50;98.20;;;19.27;67.85;97339.91;5069487;28;20050;-75
2022/09/29 02:33:24;;;;;;;2.53;2.20;;;19.50;98.30;;;19.26;68.38;97335.59;5103374;28;20043;-75
2022/09/29 02:36:23;;;;;;;3.15;2.20;;;19.50;98.50;;;19.28;67.97;97344.25;5060740;28;20130;-76
2022/09/29 02:39:12;;;;;;;3.22;2.10;;;19.50;98.30;;;19.26;67.53;97345.78;5072581;28;20052;-75
2022/09/29 02:42:11;;;;;;;2.88;2.13;;;19.40;98.10;;;19.25;67.46;97344.97;5106974;28;20036;-76
2022/09/29 02:44:57;;;;;;;2.25;1.70;;;19.50;98.20;;;19.26;67.30;97349.34;5105707;28;20043;-76
2022/09/29 02:48:05;;;;;;;2.97;2.30;;;19.40;98.10;;;19.26;68.18;97343.03;5091744;28;20032;-76
2022/09/29 02:50:51;;;;;;;2.35;1.80;;;19.50;98.40;;;19.24;68.74;97348.09;5038200;28;20057;-76
2022/09/29 02:53:44;;;;;;;3.17;2.30;;;19.50;98.50;;;19.22;68.02;97351.22;5084860;28;20040;-76
2022/09/29 02:56:24;;;;;;;3.03;1.77;;;19.40;98.20;;;19.23;67.82;97354.75;5091093;28;20662;-76
2022/09/29 02:59:09;;;;;;;3.22;2.33;;;19.40;98.20;;;19.24;67.70;97353.59;5105825;28;20509;-75
2022/09/29 03:01:48;;;;;;;3.30;2.22;;;19.40;98.10;;;19.24;67.49;97356.34;5088872;28;20043;-75
2022/09/29 03:04:14;;;;;;;2.40;2.20;;;19.40;98.10;;;19.22;68.47;97342.19;5086271;28;20032;-75
2022/09/29 03:06:40;;;;;;;2.17;1.92;;;19.40;98.50;;;19.25;68.54;97349.69;5089400;28;20110;-76
2022/09/29 03:09:07;;;;;;;4.07;2.10;;;19.40;98.50;;;19.22;68.13;97344.94;5060132;28;20071;-76
2022/09/29 03:11:33;;;;;;;4.03;2.65;;;19.40;98.30;;;19.22;68.02;97347.66;5102441;28;20039;-76
2022/09/29 03:13:59;;;;;;;4.63;2.17;;;19.40;98.20;;;19.24;67.92;97350.84;5101925;28;20099;-76
2022/09/29 03:16:25;;;;;;;2.60;2.08;;;19.40;98.20;;;19.24;67.51;97348.09;5104497;28;20500;-76
2022/09/29 03:18:52;;;;;;;2.10;1.98;;;19.40;98.10;;;19.25;68.15;97344.19;5109458;28;20039;-76
2022/09/29 03:21:18;;;;;;;3.63;2.50;;;19.40;98.30;;;19.24;68.48;97345.34;5102609;28;20044;-76
2022/09/29 03:23:43;;;;;;;2.40;1.88;;;19.40;98.50;;;19.23;68.56;97343.75;5085396;28;20471;-76
2022/09/29 03:26:10;;;;;;;2.28;2.10;;;19.40;98.50;;;19.21;68.14;97340.56;5101951;28;20470;-76
2022/09/29 03:28:36;;;;;;;4.03;2.22;;;19.40;98.30;;;19.20;67.93;97334.28;5102756;28;20035;-76
2022/09/29 03:31:06;;;;;;;4.00;2.47;;;19.40;98.20;;;19.22;67.46;97328.44;5100434;28;20051;-76
2022/09/29 03:33:33;;;;;;;3.10;2.63;;;19.40;98.10;;;19.22;67.39;97331.97;5086671;28;20036;-76
2022/09/29 03:35:59;;;;;;;1.65;1.55;;;19.40;98.10;;;19.20;68.43;97333.50;5056258;28;20044;-76
2022/09/29 03:38:25;;;;;;;3.88;2.45;;;19.40;98.40;;;19.23;68.64;97327.25;5082894;28;20036;-76
2022/09/29 03:40:51;;;;;;;3.22;2.10;;;19.40;98.50;;;19.20;68.32;97328.00;5074933;28;20039;-76
2022/09/29 03:43:18;;;;;;;4.03;2.85;;;19.40;98.40;;;19.22;67.94;97320.97;5102814;28;20129;-76
2022/09/29 03:45:52;;;;;;;3.95;2.40;;;19.40;98.30;;;19.19;67.70;97309.94;5099023;28;20434;-76
2022/09/29 03:48:18;;;;;;;3.30;2.28;;;19.40;98.20;;;19.19;68.09;97318.97;5086601;28;20569;-76
2022/09/29 03:50:44;;;;;;;2.13;1.95;;;19.40;98.20;;;19.21;68.04;97321.31;5085523;28;20048;-76
2022/09/29 03:53:11;;;;;;;2.33;2.13;;;19.40;98.40;;;19.21;67.76;97330.41;5072132;28;20047;-76
2022/09/29 03:55:37;;;;;;;3.90;1.80;;;19.40;98.20;;;19.18;67.09;97333.84;5088206;28;20115;-76
2022/09/29 03:58:03;;;;;;;3.53;1.95;;;19.40;98.00;;;19.18;66.92;97336.59;5082454;28;20042;-76
2022/09/29 04:00:29;;;;;;;4.47;2.22;;;19.40;97.90;;;19.18;66.78;97344.06;5099841;28;20051;-75
2022/09/29 04:02:55;;;;;;;2.92;2.20;;;19.40;97.90;;;19.18;67.20;97347.59;5087711;28;20040;-77
2022/09/29 04:05:21;;;;;;;2.17;1.98;;;19.40;98.10;;;19.20;67.74;97344.50;5097786;28;20140;-76
2022/09/29 04:07:47;;;;;;;3.40;2.20;;;19.40;98.20;;;19.17;68.32;97337.78;5099665;28;20040;-75
2022/09/29 04:10:14;;;;;;;2.33;1.85;;;19.40;98.30;;;19.16;67.30;97349.94;5067461;28;20168;-76
2022/09/29 04:12:40;;;;;;;2.55;2.15;;;19.40;98.10;;;19.16;66.81;97358.19;5081414;28;20067;-75
2022/09/29 04:15:06;;;;;;;4.00;2.53;;;19.40;97.90;;;19.11;66.70;97344.75;5098283;28;20040;-75
2022/09/29 04:17:33;;;;;;;3.42;2.53;;;19.30;97.80;;;19.16;66.25;97349.13;5090187;28;20371;-75
2022/09/29 04:19:59;;;;;;;3.25;2.22;;;19.30;97.80;;;19.18;67.30;97350.34;5090269;28;20044;-75
2022/09/29 04:22:25;;;;;;;2.03;1.75;;;19.30;98.10;;;19.18;67.25;97353.09;5099601;28;20668;-76
2022/09/29 04:24:51;;;;;;;2.78;2.17;;;19.30;98.10;;;19.17;67.39;97353.47;5088664;28;20042;-76
2022/09/29 04:27:17;;;;;;;3.63;2.53;;;19.40;98.10;;;19.14;66.52;97346.75;5100632;28;20036;-76
2022/09/29 04:29:43;;;;;;;3.50;2.33;;;19.30;97.80;;;19.09;66.60;97355.31;5102355;28;20048;-76
2022/09/29 04:32:10;;;;;;;3.50;2.53;;;19.30;97.80;;;19.12;66.03;97353.78;5083227;28;20042;-76
2022/09/29 04:34:36;;;;;;;2.30;2.10;;;19.30;97.80;;;19.16;65.85;97355.44;5098781;28;20036;-76
2022/09/29 04:37:03;;;;;;;2.65;2.08;;;19.30;97.80;;;19.15;67.16;97358.53;5089734;28;20395;-76
2022/09/29 04:39:29;;;;;;;2.72;1.75;;;19.30;98.10;;;19.17;67.43;97354.25;5073535;28;20036;-76
2022/09/29 04:41:55;;;;;;;3.17;2.00;;;19.40;98.10;;;19.15;67.07;97356.56;5086372;28;20050;-76
2022/09/29 04:44:23;;;;;;;2.40;1.92;;;19.30;98.00;;;19.13;66.29;97361.63;5096572;28;20507;-76
2022/09/29 04:46:50;;;;;;;9.25;2.35;;;19.30;97.80;;;19.13;65.80;97367.13;5095969;28;21035;-76
2022/09/29 04:49:17;;;;;;;2.67;1.70;;;19.30;97.70;;;19.13;65.72;97369.88;5050938;28;20055;-77
2022/09/29 04:51:44;;;;;;;5.13;2.88;;;19.30;97.70;;;19.14;66.53;97377.00;5082871;28;20044;-76
2022/09/29 04:54:10;;;;;;;3.33;2.05;;;19.30;97.90;;;19.15;66.92;97383.28;5082521;28;20047;-76
2022/09/29 04:56:36;;;;;;;2.08;1.60;;;19.30;98.10;;;19.16;67.58;97399.41;5083708;28;20036;-76
2022/09/29 04:59:02;;;;;;;2.28;1.85;;;19.30;98.10;;;19.14;66.19;97407.22;5095198;28;20039;-76
2022/09/29 05:01:29;;;;;;;2.75;2.20;;;19.30;97.80;;;19.08;66.27;97400.41;5104482;28;20052;-76
2022/09/29 05:03:55;;;;;;;3.08;2.58;;;19.30;97.70;;;19.11;65.76;97394.22;5087838;28;20448;-76
2022/09/29 05:06:21;;;;;;;4.22;2.50;;;19.30;97.70;;;19.13;65.51;97402.88;5103655;28;20036;-76
2022/09/29 05:08:47;;;;;;;2.85;2.30;;;19.30;97.70;;;19.12;67.05;97406.78;5099154;28;20047;-76
2022/09/29 05:11:13;;;;;;;3.05;2.22;;;19.30;98.10;;;19.13;66.99;97402.88;5081049;28;20047;-77
2022/09/29 05:13:39;;;;;;;4.18;2.25;;;19.30;98.10;;;19.15;66.93;97403.31;5083158;28;20043;-76
2022/09/29 05:16:06;;;;;;;2.33;2.13;;;19.30;98.10;;;19.14;65.75;97415.47;5105932;28;20479;-76
2022/09/29 05:18:32;;;;;;;5.43;2.70;;;19.30;97.60;;;19.08;65.87;97401.22;5071076;28;20040;-76
2022/09/29 05:21:04;;;;;;;1.85;1.75;;;19.30;97.70;;;19.11;65.55;97407.94;5083044;28;20042;-76
2022/09/29 05:23:30;;;;;;;4.68;2.47;;;19.20;97.60;;;19.11;65.54;97412.63;5087065;28;20070;-76
2022/09/29 05:26:01;;;;;;;2.45;2.13;;;19.30;97.70;;;19.14;66.45;97417.44;5093948;28;20040;-76
2022/09/29 05:28:27;;;;;;;;;;;19.20;97.90;;;19.13;66.56;97413.84;5071490;28;20156;-76
2022/09/29 05:30:53;;;;;;;1.95;1.80;;;19.30;97.90;;;19.10;66.10;97403.59;5082510;28;19924;-76
2022/09/29 05:33:19;;;;;;;3.58;2.33;;;19.30;97.80;;;19.10;65.39;97400.84;5083908;28;20046;-76
2022/09/29 05:35:46;;;;;;;2.25;1.70;;;19.30;97.60;;;19.10;65.40;97395.34;5071913;28;20071;-76
2022/09/29 05:38:12;;;;;;;2.88;2.25;;;19.20;97.60;;;19.13;65.06;97411.09;5076845;28;20098;-75
2022/09/29 05:40:38;;;;;;;3.50;2.35;;;19.20;97.50;;;19.15;65.89;97408.78;5088166;28;20098;-75
2022/09/29 05:43:04;;;;;;;2.08;1.83;;;19.20;97.80;;;19.14;66.29;97415.47;5061211;28;20048;-75
2022/09/29 05:45:31;;;;;;;3.25;2.15;;;19.20;97.90;;;19.14;66.47;97404.47;5095523;28;20483;-75
2022/09/29 05:47:57;;;;;;;2.65;1.92;;;19.20;98.00;;;19.09;65.58;97404.78;5093336;28;20047;-75
2022/09/29 05:50:24;;;;;;;1.92;1.65;;;19.20;97.60;;;19.13;65.34;97408.38;5071669;28;20048;-75
2022/09/29 05:52:51;;;;;;;2.13;1.85;;;19.20;97.60;;;19.15;65.38;97408.78;5078619;28;20374;-75
2022/09/29 05:55:18;;;;;;;2.03;1.85;;;19.20;97.60;;;19.14;65.44;97406.44;5084999;28;20047;-76
2022/09/29 05:57:48;;;;;;;4.07;2.33;;;19.30;97.70;;;19.15;65.39;97408.78;5060591;28;20112;-76
2022/09/29 06:00:14;;;;;;;2.42;2.17;;;19.30;97.70;;;19.14;65.30;97412.72;5094094;28;20578;-75
2022/09/29 06:02:40;;;;;;;2.90;2.35;;;19.30;97.70;;;19.15;65.36;97408.78;5098031;28;20467;-75
2022/09/29 06:05:07;;;;;;;2.00;1.80;;;19.30;97.70;;;19.17;66.11;97414.72;5080865;28;20116;-76
2022/09/29 06:07:33;;;;;;;5.28;2.00;;;19.30;97.90;;;19.18;66.15;97416.31;5067540;28;20490;-76
2022/09/29 06:09:59;;;;;;;2.38;2.13;;;19.30;97.90;;;19.22;65.46;97422.69;5098917;28;20189;-76
2022/09/29 06:12:25;;;;;;;4.45;2.63;;;19.30;97.80;;;19.21;65.35;97412.84;5092497;28;20446;-76
2022/09/29 06:14:51;;;;;;;2.35;1.88;;;19.30;97.80;;;19.22;65.27;97410.91;5089342;28;20097;-76
2022/09/29 06:17:18;;;;;;;2.40;1.65;;;19.30;97.80;;;19.22;65.08;97414.44;5076818;28;20043;-76
2022/09/29 06:19:46;;;;;;;3.40;2.38;;;19.30;97.80;;;19.25;65.41;97410.94;5093724;28;20051;-78
2022/09/29 06:22:13;;;;;;;1.95;1.75;;;19.30;97.90;;;19.29;65.76;97419.28;5101706;28;20040;-78
2022/09/29 06:24:39;;;;;;;4.65;2.45;;;19.30;97.90;;;19.29;65.78;97409.06;5054590;28;20044;-78
2022/09/29 06:27:05;;;;;;;2.25;1.90;;;19.40;97.90;;;19.29;65.05;97409.06;5080679;28;20538;-77
2022/09/29 06:29:31;;;;;;;2.15;1.92;;;19.40;97.80;;;19.35;64.73;97404.06;5092828;28;20376;-76
2022/09/29 06:31:57;;;;;;;2.28;1.95;;;19.40;97.80;;;19.37;64.71;97403.72;5089656;28;20533;-76
2022/09/29 06:34:23;;;;;;;3.90;2.22;;;19.40;97.80;;;19.38;64.32;97410.78;5092875;28;20035;-77
2022/09/29 06:39:34;;;;;;;2.08;1.90;;;19.40;97.90;;;19.36;65.39;97404.84;5069463;28;20061;-77
2022/09/29 06:42:02;;;;;;;6.25;2.53;;;19.40;97.90;;;19.37;65.21;97411.97;5081255;28;20501;-77
2022/09/29 06:44:29;;;;;;;2.97;2.05;;;19.50;97.90;;;19.34;65.12;97415.44;5093088;28;20609;-76
2022/09/29 06:46:56;;;;;;;2.47;2.13;;;19.40;97.70;;;19.33;65.12;97414.63;5064737;28;20047;-76
2022/09/29 06:49:23;;;;;;;3.00;2.63;;;19.40;97.70;;;19.35;64.82;97414.28;5076783;28;20473;-76
2022/09/29 06:51:49;;;;;;;3.92;2.40;;;19.40;97.70;;;19.37;65.35;97421.00;5068289;28;20068;-76
2022/09/29 06:54:19;;;;;;;3.97;2.00;;;19.40;97.80;;;19.36;65.52;97418.59;5082134;28;20047;-76
2022/09/29 06:56:47;;;;;;;3.60;2.08;;;19.40;97.90;;;19.33;65.75;97417.38;5046507;28;20039;-76
2022/09/29 06:59:13;;;;;;;2.28;1.88;;;19.40;97.90;;;19.36;65.00;97413.09;5074316;28;20067;-76
2022/09/29 07:01:39;;;;;;;2.25;1.75;;;19.50;97.80;;;19.38;64.88;97411.56;5091333;28;20499;-76
2022/09/29 07:04:05;;;;;;;4.03;2.38;;;19.40;97.70;;;19.41;64.68;97423.78;5069021;28;20391;-76
2022/09/29 07:06:31;;;;;;;2.63;2.00;;;19.50;97.70;;;19.39;64.70;97423.38;5080141;28;20057;-76
2022/09/29 07:08:57;;;;;;;2.30;1.92;;;19.40;97.60;;;19.41;65.39;97419.13;5075861;28;20070;-76
2022/09/29 07:11:25;;;;;;;8.10;2.05;;;19.40;97.90;;;19.41;65.31;97413.63;5096970;28;20674;-76
2022/09/29 07:13:51;;;;;;;3.75;2.25;;;19.50;97.90;;;19.42;65.10;97411.66;5082787;28;20134;-76
2022/09/29 07:16:17;;;;;;;5.15;1.90;;;19.50;97.80;;;19.41;64.93;97421.03;5066806;28;20115;-76
2022/09/29 07:18:45;;;;;;;2.13;1.95;;;19.50;97.70;;;19.40;64.89;97425.75;5082120;28;20156;-76
2022/09/29 07:21:16;;;;;;;1.73;1.63;;;19.50;97.70;;;19.39;64.65;97423.38;5086287;28;20040;-76
2022/09/29 07:23:43;;;;;;;3.22;2.00;;;19.50;97.70;;;19.42;64.61;97433.66;5083730;28;20569;-76
2022/09/29 07:26:09;;;;;;;2.70;2.05;;;19.50;97.70;;;19.44;65.23;97426.63;5067741;28;20496;-76
2022/09/29 07:28:35;;;;;;;2.67;2.35;;;19.50;97.90;;;19.48;64.92;97432.97;5082134;28;20032;-76
2022/09/29 07:31:06;;;;;;;2.28;1.80;;;19.50;97.90;;;19.50;64.60;97435.38;5093738;28;20123;-77
2022/09/29 07:33:33;;;;;;;2.90;1.70;;;19.60;97.70;;;19.52;64.34;97439.34;5069171;28;20048;-76
2022/09/29 07:35:59;;;;;;;3.30;1.77;;;19.60;97.70;;;19.52;64.14;97444.06;5068868;28;20048;-77
2022/09/29 07:38:26;;;;;;;3.65;1.70;;;19.60;97.60;;;19.55;63.93;97445.28;5076207;28;20035;-76
2022/09/29 07:40:53;;;;;;;2.97;2.00;;;19.60;97.60;;;19.58;64.28;97450.81;5080806;28;20488;-76
2022/09/29 07:43:18;;;;;;;2.58;1.98;;;19.60;97.70;;;19.58;64.50;97453.56;5044700;28;20036;-76
2022/09/29 07:45:49;;;;;;;2.40;1.80;;;19.60;97.80;;;19.62;64.47;97453.66;5092519;28;20051;-77
2022/09/29 07:48:16;;;;;;;2.03;1.65;;;19.60;97.80;;;19.61;63.60;97458.34;5072377;28;20491;-76
2022/09/29 07:50:43;;;;;;;2.35;2.05;;;19.60;97.50;;;19.63;63.53;97456.03;5052696;28;20036;-76
2022/09/29 07:53:09;;;;;;;3.63;1.88;;;19.60;97.50;;;19.64;63.70;97454.88;5086419;28;20040;-76
2022/09/29 07:55:35;;;;;;;2.95;1.83;;;19.70;97.50;;;19.68;63.33;97455.75;5066364;28;20048;-77
2022/09/29 07:58:01;;;;;;;2.08;1.55;;;19.70;97.50;;;19.71;63.72;97457.75;5078306;28;20398;-76
2022/09/29 08:00:30;;;;;;;1.98;1.77;;;19.70;97.60;;;19.73;63.51;97460.94;5080603;28;20056;-77
2022/09/29 08:03:01;;;;;;;1.90;1.63;;;19.70;97.60;;;19.76;63.41;97464.13;5095691;28;20507;-77
2022/09/29 08:05:29;;;;;;;3.97;2.20;;;19.70;97.50;;;19.77;63.55;97461.03;5069298;28;20581;-76
2022/09/29 08:07:57;;;;;;;2.95;1.85;;;19.70;97.60;;;19.78;63.30;97450.81;5069652;28;20134;-77
2022/09/29 08:10:23;;;;;;;2.60;1.90;;;19.70;97.50;;;19.78;63.24;97462.59;5081923;28;20039;-77
2022/09/29 08:12:49;;;;;;;3.88;1.88;;;19.80;97.50;;;19.78;63.54;97464.56;5095635;28;20662;-77
2022/09/29 08:15:15;;;;;;;3.10;1.80;;;19.80;97.60;;;19.78;63.77;97468.09;5086284;28;20048;-77
2022/09/29 08:17:41;;;;;;;4.78;2.03;;;19.80;97.60;;;19.77;64.33;97471.22;5080183;28;20461;-77
2022/09/29 08:20:07;;;;;;;2.10;1.50;;;19.90;97.70;;;19.79;63.79;97471.66;5069213;28;20039;-77
2022/09/29 08:22:34;;;;;;;2.20;2.00;;;19.80;97.50;;;19.82;63.66;97476.41;5093347;28;20046;-77
2022/09/29 08:25:00;;;;;;;2.92;1.75;;;19.80;97.50;;;19.83;63.43;97480.78;5065681;28;20036;-77
2022/09/29 08:27:28;;;;;;;1.92;1.60;;;19.90;97.90;;;19.84;63.33;97482.34;5084492;28;20384;-77
2022/09/29 08:29:54;;;;;;;2.80;1.88;;;19.90;97.60;;;19.84;63.78;97485.09;5078595;28;20066;-77
2022/09/29 08:32:20;;;;;;;2.25;1.60;;;19.90;97.60;;;19.82;63.87;97490.16;5078237;28;20036;-77
2022/09/29 08:34:46;;;;;;;6.65;1.63;;;19.90;97.60;;;19.84;63.97;97490.59;5076991;28;20504;-77
2022/09/29 08:37:12;;;;;;;3.08;1.77;;;19.90;97.60;;;19.87;63.95;97487.94;5098284;28;20039;-77
2022/09/29 08:39:39;;;;;;;2.75;1.60;;;19.90;97.60;;;19.91;63.30;97486.00;5080951;28;20039;-77
2022/09/29 08:42:47;;;;;;;2.05;1.85;;;19.90;97.60;;;19.99;63.15;97500.69;5050008;28;20032;-77
2022/09/29 08:45:29;;;;;;;2.97;1.85;;;20.00;97.50;;;20.00;63.28;97499.56;5097251;28;20118;-77
2022/09/29 08:48:18;;;;;;;;;;;20.00;97.60;;;20.04;63.04;97497.63;5076688;28;20495;-77
2022/09/29 08:50:58;;;;;;;2.60;1.80;;;20.00;97.60;;;20.08;62.96;97505.97;5084173;28;19970;-77
2022/09/29 08:53:26;;;;;;;3.15;1.77;;;20.10;97.70;;;20.10;63.15;97501.69;5092569;28;20044;-77
2022/09/29 08:55:56;;;;;;;3.38;2.20;;;20.10;97.50;;;20.12;62.54;97510.38;5073887;28;20050;-77
2022/09/29 08:58:22;;;;;;;2.30;1.50;;;20.10;97.50;;;20.13;62.30;97511.94;5082206;28;20465;-77
2022/09/29 09:01:02;;;;;;;3.97;1.98;;;20.10;97.30;;;20.13;62.15;97511.94;5093309;28;20056;-77
2022/09/29 09:03:59;;;;;;;3.05;1.90;;;20.10;97.30;;;20.15;62.27;97515.13;5106127;27;20063;-77
2022/09/29 09:06:41;;;;;;;3.42;1.70;;;20.10;97.40;;;20.21;62.19;97512.06;5093429;28;20087;-77
2022/09/29 09:09:46;;;;;;;3.30;2.00;;;20.20;97.50;;;20.27;61.47;97516.88;5080826;28;20115;-77
2022/09/29 09:12:41;;;;;;;1.60;1.48;;;20.20;97.30;;;20.29;61.29;97514.56;5091885;28;20074;-77
2022/09/29 09:15:36;;;;;;;4.82;1.65;;;20.20;97.20;;;20.20;61.24;97511.28;5092028;28;20044;-77
2022/09/29 09:18:27;;;;;;;2.10;1.88;;;20.20;97.10;;;20.20;61.63;97507.72;5095322;28;20089;-77
2022/09/29 09:21:08;;;;;;;2.47;1.65;;;20.20;97.20;;;20.19;61.85;97504.16;5099040;28;20044;-77
2022/09/29 09:23:56;;;;;;;2.20;2.00;;;20.20;97.20;;;20.17;61.66;97510.06;5081175;28;20744;-77
2022/09/29 09:26:41;;;;;;;3.65;2.15;;;20.30;97.20;;;20.15;61.57;97514.34;5094568;28;20111;-77
2022/09/29 09:29:39;;;;;;;2.97;1.42;;;20.20;97.10;;;20.15;61.57;97526.16;5082053;28;20032;-77
2022/09/29 09:32:27;;;;;;;1.70;1.60;;;20.20;97.00;;;20.13;61.92;97517.47;5064821;28;20055;-77
2022/09/29 09:35:07;;;;;;;3.28;1.77;;;20.20;97.00;;;20.11;62.03;97517.03;5073271;28;20047;-77
2022/09/29 09:37:38;;;;;;;2.15;1.73;;;20.30;97.10;;;20.12;62.38;97524.13;5050021;28;20035;-77
2022/09/29 09:40:20;;;;;;;1.67;1.58;;;20.30;97.10;;;20.14;61.87;97519.03;5079315;28;20117;-77
2022/09/29 09:42:57;;;;;;;2.55;1.98;;;20.30;97.10;;;20.17;61.82;97523.84;5061307;28;20040;-77
2022/09/29 09:45:33;;;;;;;2.50;1.15;;;20.30;97.00;;;20.15;61.33;97523.41;5077234;28;20108;-77
2022/09/29 09:48:18;;;;;;;2.30;1.92;;;20.30;96.90;;;20.14;61.53;97521.78;5070951;28;20136;-77
2022/09/29 09:50:49;;;;;;;3.13;1.60;;;20.30;96.90;;;20.15;61.60;97533.63;5079766;28;20044;-77
2022/09/29 09:53:49;;;;;;;2.90;1.85;;;20.30;97.00;;;20.14;62.30;97530.03;5079430;28;20032;-77
2022/09/29 09:56:30;;;;;;;3.13;2.00;;;20.30;97.00;;;20.12;61.83;97535.16;5085054;28;20521;-77
2022/09/29 09:59:20;;;;;;;2.20;1.52;;;20.30;96.90;;;20.14;61.91;97535.56;5080634;28;20118;-77
2022/09/29 10:01:46;;;;;;;1.60;1.40;;;20.30;96.90;;;20.15;61.54;97544.63;5097033;28;20434;-77
2022/09/29 10:04:13;;;;;;;2.67;2.00;;;20.30;96.90;;;20.13;61.55;97544.19;5095348;28;20554;-76
2022/09/29 10:06:39;;;;;;;5.35;1.70;;;20.30;96.90;;;20.11;61.80;97544.56;5061192;28;20059;-77
2022/09/29 10:09:11;;;;;;;1.52;1.42;;;20.30;97.00;;;20.13;62.00;97545.00;5065161;28;20139;-77
2022/09/29 10:11:38;;;;;;;1.98;1.23;;;20.30;96.90;;;20.13;61.87;97547.75;5079405;28;20078;-77
2022/09/29 10:14:33;;;;;;;2.08;1.70;;;20.30;97.00;;;20.10;61.75;97544.94;5076538;28;20043;-76
2022/09/29 10:17:06;;;;;;;1.55;1.13;;;20.30;96.90;;;20.09;61.70;97549.63;5085235;28;20054;-77
2022/09/29 10:19:52;;;;;;;1.20;1.17;;;20.30;96.80;;;20.11;61.42;97547.31;5076326;28;20047;-77
2022/09/29 10:22:19;;;;;;;1.17;1.08;;;20.30;96.80;;;20.09;61.77;97552.38;5100038;28;20065;-77
2022/09/29 10:24:45;;;;;;;2.15;1.50;;;20.30;96.80;;;20.05;62.20;97543.28;5060749;28;20048;-77
2022/09/29 10:27:16;;;;;;;3.28;1.63;;;20.30;96.90;;;20.05;62.24;97540.53;5051309;28;20047;-77
2022/09/29 10:29:48;;;;;;;2.38;1.45;;;20.30;97.00;;;20.05;61.68;97540.53;5067028;28;20131;-76
2022/09/29 10:32:20;;;;;;;1.77;1.35;;;20.30;96.80;;;20.05;62.06;97543.28;5063600;28;20101;-76
2022/09/29 10:34:55;;;;;;;3.88;1.88;;;20.30;96.80;;;20.04;61.83;97547.19;5098210;28;20044;-77
2022/09/29 10:37:34;;;;;;;3.13;1.73;;;20.30;96.70;;;20.05;61.73;97546.03;5068658;28;20032;-76
2022/09/29 10:40:13;;;;;;;1.90;1.42;;;20.30;96.70;;;20.08;61.91;97545.28;5055127;28;20126;-76
2022/09/29 10:42:42;;;;;;;1.58;1.42;;;20.30;96.90;;;20.10;61.88;97536.69;5091999;28;20035;-76
2022/09/29 10:45:20;;;;;;;2.30;1.30;;;20.40;96.90;;;20.11;61.62;97552.03;5064935;28;20147;-76